createdAt,value
2023-03-05T00:01:30.543Z,16.07
2023-03-05T00:03:59.015Z,15.40
2023-03-05T00:06:28.938Z,15.10
2023-03-05T00:08:58.513Z,15.03
2023-03-05T00:11:30.116Z,14.70
2023-03-05T00:13:59.502Z,15.63
2023-03-05T00:16:29.824Z,14.70
2023-03-05T00:19:01.261Z,15.03
2023-03-05T00:21:30.634Z,14.80
2023-03-05T00:24:01.578Z,15.33
2023-03-05T00:26:30.415Z,15.07
2023-03-05T00:28:59.497Z,15.93
2023-03-05T00:31:31.142Z,15.40
2023-03-05T00:34:01.131Z,15.40
2023-03-05T00:36:30.093Z,15.80
2023-03-05T00:38:58.252Z,16.23
2023-03-05T00:41:26.574Z,16.00
2023-03-05T00:43:54.847Z,17.03
2023-03-05T00:46:23.160Z,16.57
2023-03-05T00:48:52.687Z,14.87
2023-03-05T00:51:20.957Z,15.50
2023-03-05T00:53:48.994Z,15.10
2023-03-05T00:56:17.010Z,15.50
2023-03-05T00:58:44.990Z,16.03
2023-03-05T01:01:13.057Z,14.77
2023-03-05T01:03:41.474Z,15.10
2023-03-05T01:06:13.821Z,16.90
2023-03-05T01:08:41.882Z,14.73
2023-03-05T01:11:10.966Z,14.47
2023-03-05T01:13:39.242Z,14.20
2023-03-05T01:16:07.960Z,15.50
2023-03-05T01:18:35.980Z,14.80
2023-03-05T01:21:05.498Z,14.97
2023-03-05T01:23:37.349Z,14.90
2023-03-05T01:26:06.209Z,15.00
2023-03-05T01:28:34.297Z,15.00
2023-03-05T01:31:02.289Z,15.10
2023-03-05T01:33:30.313Z,14.93
2023-03-05T01:35:58.425Z,15.30
2023-03-05T01:38:26.405Z,15.60
2023-03-05T01:40:55.679Z,16.10
2023-03-05T01:43:27.355Z,14.47
2023-03-05T01:46:34.832Z,14.80
2023-03-05T01:49:07.574Z,15.10
2023-03-05T01:51:41.349Z,15.00
2023-03-05T01:54:12.553Z,14.73
2023-03-05T01:56:42.823Z,14.83
2023-03-05T01:59:11.967Z,14.93
2023-03-05T02:01:43.542Z,14.10
2023-03-05T02:04:15.468Z,14.47
2023-03-05T02:06:44.713Z,14.23
2023-03-05T02:09:12.697Z,14.23
2023-03-05T02:11:42.841Z,14.00
2023-03-05T02:14:11.531Z,14.47
2023-03-05T02:16:40.152Z,14.60
2023-03-05T02:19:10.591Z,14.37
2023-03-05T02:21:41.882Z,14.50
2023-03-05T02:24:13.578Z,14.70
2023-03-05T02:26:43.211Z,32.77
2023-03-05T02:29:13.930Z,32.03
2023-03-05T02:31:41.994Z,32.60
2023-03-05T02:34:10.050Z,32.90
2023-03-05T02:36:39.474Z,32.60
2023-03-05T02:39:08.965Z,32.10
2023-03-05T02:41:37.349Z,32.73
2023-03-05T02:44:05.715Z,32.77
2023-03-05T02:46:33.739Z,33.20
2023-03-05T02:49:01.948Z,32.73
2023-03-05T02:51:29.916Z,34.67
2023-03-05T02:53:59.246Z,33.10
2023-03-05T02:56:27.347Z,17.33
2023-03-05T02:58:55.324Z,14.80
2023-03-05T03:01:23.468Z,15.10
2023-03-05T03:03:51.577Z,15.63
2023-03-05T03:06:19.562Z,15.10
2023-03-05T03:08:47.553Z,15.13
2023-03-05T03:11:17.665Z,15.10
2023-03-05T03:13:45.816Z,15.83
2023-03-05T03:16:15.850Z,15.00
2023-03-05T03:18:44.397Z,15.10
2023-03-05T03:21:19.207Z,14.90
2023-03-05T03:23:47.149Z,15.57
2023-03-05T03:26:16.756Z,14.77
2023-03-05T03:28:45.274Z,14.40
2023-03-05T03:31:13.528Z,15.93
2023-03-05T03:33:41.574Z,14.87
2023-03-05T03:36:10.262Z,15.13
2023-03-05T03:38:38.504Z,14.70
2023-03-05T03:41:07.698Z,15.30
2023-03-05T03:43:37.391Z,33.40
2023-03-05T03:46:06.637Z,33.00
2023-03-05T03:48:36.069Z,33.67
2023-03-05T03:51:07.018Z,31.90
2023-03-05T03:53:35.346Z,32.37
2023-03-05T03:56:03.423Z,33.07
2023-03-05T03:58:31.601Z,33.03
2023-03-05T04:01:00.920Z,32.53
2023-03-05T04:03:29.050Z,31.87
2023-03-05T04:05:56.996Z,31.90
2023-03-05T04:08:24.936Z,31.97
2023-03-05T04:10:53.057Z,32.77
2023-03-05T04:13:21.029Z,32.93
2023-03-05T04:15:49.191Z,33.00
2023-03-05T04:18:18.531Z,32.93
2023-03-05T04:20:46.691Z,33.97
2023-03-05T04:23:15.038Z,34.03
2023-03-05T04:25:43.113Z,33.63
2023-03-05T04:28:11.119Z,34.00
2023-03-05T04:30:39.181Z,32.73
2023-03-05T04:33:07.121Z,32.33
2023-03-05T04:35:37.562Z,32.13
2023-03-05T04:38:05.813Z,15.63
2023-03-05T04:40:34.155Z,15.40
2023-03-05T04:43:02.393Z,15.70
2023-03-05T04:45:30.500Z,15.47
2023-03-05T04:47:58.621Z,15.47
2023-03-05T04:50:26.987Z,15.67
2023-03-05T04:52:56.284Z,15.30
2023-03-05T04:55:24.388Z,16.07
2023-03-05T04:57:52.318Z,15.87
2023-03-05T05:00:20.969Z,15.57
2023-03-05T05:02:52.594Z,16.20
2023-03-05T05:05:22.144Z,16.03
2023-03-05T05:07:50.454Z,15.70
2023-03-05T05:10:20.050Z,15.73
2023-03-05T05:12:48.028Z,15.33
2023-03-05T05:15:16.196Z,31.40
2023-03-05T05:17:44.417Z,34.43
2023-03-05T05:20:15.308Z,34.73
2023-03-05T05:22:43.982Z,34.47
2023-03-05T05:25:12.453Z,32.70
2023-03-05T05:27:41.909Z,33.67
2023-03-05T05:30:11.672Z,34.37
2023-03-05T05:32:39.856Z,34.70
2023-03-05T05:35:08.686Z,35.23
2023-03-05T05:37:36.647Z,34.10
2023-03-05T05:40:06.743Z,34.07
2023-03-05T05:42:35.113Z,34.37
2023-03-05T05:45:04.900Z,34.70
2023-03-05T05:47:32.877Z,34.70
2023-03-05T05:50:00.882Z,36.30
2023-03-05T05:52:28.875Z,34.90
2023-03-05T05:54:56.895Z,33.70
2023-03-05T05:57:25.121Z,33.90
2023-03-05T05:59:53.215Z,29.90
2023-03-05T06:02:22.597Z,29.33
2023-03-05T06:04:50.586Z,31.27
2023-03-05T06:07:18.568Z,15.00
2023-03-05T06:09:46.653Z,14.63
2023-03-05T06:12:14.616Z,14.67
2023-03-05T06:14:42.727Z,14.60
2023-03-05T06:17:12.944Z,14.90
2023-03-05T06:19:46.302Z,14.90
2023-03-05T06:22:15.387Z,14.73
2023-03-05T06:24:43.383Z,16.80
2023-03-05T06:27:11.312Z,16.03
2023-03-05T06:29:39.306Z,16.33
2023-03-05T06:32:07.995Z,15.70
2023-03-05T06:34:35.977Z,14.80
2023-03-05T06:37:05.322Z,15.43
2023-03-05T06:39:33.549Z,22.00
2023-03-05T06:42:01.612Z,29.20
2023-03-05T06:44:29.626Z,29.30
2023-03-05T06:46:57.641Z,29.27
2023-03-05T06:49:25.707Z,30.00
2023-03-05T06:51:53.723Z,29.23
2023-03-05T06:54:23.025Z,29.83
2023-03-05T06:56:51.083Z,29.23
2023-03-05T06:59:19.216Z,29.77
2023-03-05T07:01:47.227Z,29.77
2023-03-05T07:04:16.077Z,29.23
2023-03-05T07:06:44.558Z,30.70
2023-03-05T07:09:15.211Z,28.67
2023-03-05T07:11:45.123Z,29.30
2023-03-05T07:14:13.406Z,29.80
2023-03-05T07:16:41.423Z,29.13
2023-03-05T07:19:11.054Z,29.60
2023-03-05T07:21:39.981Z,14.40
2023-03-05T07:24:09.008Z,15.03
2023-03-05T07:26:37.195Z,14.73
2023-03-05T07:29:06.706Z,15.97
2023-03-05T07:31:34.707Z,15.10
2023-03-05T07:34:04.498Z,13.90
2023-03-05T07:36:34.911Z,14.90
2023-03-05T07:39:05.065Z,14.80
2023-03-05T07:41:33.526Z,15.10
2023-03-05T07:44:01.546Z,14.63
2023-03-05T07:46:32.852Z,15.40
2023-03-05T07:49:01.362Z,15.17
2023-03-05T07:51:30.056Z,16.10
2023-03-05T07:53:59.544Z,15.20
2023-03-05T07:56:31.767Z,15.40
2023-03-05T07:59:00.421Z,22.00
2023-03-05T08:01:29.933Z,12.20
2023-03-05T08:03:58.107Z,13.83
2023-03-05T08:06:26.245Z,14.43
2023-03-05T08:08:54.264Z,14.70
2023-03-05T08:11:22.674Z,14.17
2023-03-05T08:13:51.027Z,15.80
2023-03-05T08:16:21.017Z,19.30
2023-03-05T08:18:50.746Z,29.83
2023-03-05T08:21:20.690Z,29.90
2023-03-05T08:23:49.266Z,30.77
2023-03-05T08:26:19.424Z,30.60
2023-03-05T08:28:47.469Z,29.23
2023-03-05T08:31:17.253Z,30.47
2023-03-05T08:33:45.408Z,31.73
2023-03-05T08:36:14.755Z,29.97
2023-03-05T08:38:44.657Z,31.40
2023-03-05T08:41:13.615Z,29.90
2023-03-05T08:43:41.993Z,15.97
2023-03-05T08:46:21.822Z,14.67
2023-03-05T08:48:50.254Z,16.07
2023-03-05T08:51:21.509Z,14.60
2023-03-05T08:53:49.512Z,15.70
2023-03-05T08:56:17.476Z,12.60
2023-03-05T08:58:46.200Z,16.10
2023-03-05T09:01:14.611Z,14.40
2023-03-05T09:03:43.010Z,13.37
2023-03-05T09:06:12.371Z,15.27
2023-03-05T09:08:41.842Z,26.67
2023-03-05T09:11:13.137Z,16.43
2023-03-05T09:13:41.157Z,16.53
2023-03-05T09:16:12.482Z,28.87
2023-03-05T09:18:40.779Z,25.13
2023-03-05T09:21:10.313Z,25.10
2023-03-05T09:23:38.549Z,26.53
2023-03-05T09:26:08.714Z,23.63
2023-03-05T09:28:37.039Z,24.67
2023-03-05T09:31:06.094Z,25.80
2023-03-05T09:33:34.719Z,21.13
2023-03-05T09:36:03.397Z,22.03
2023-03-05T09:38:36.437Z,21.23
2023-03-05T09:41:15.657Z,18.90
2023-03-05T09:43:52.883Z,17.80
2023-03-05T09:46:33.858Z,16.70
2023-03-05T09:49:16.060Z,15.80
2023-03-05T09:51:47.328Z,15.37
2023-03-05T09:54:19.996Z,17.47
2023-03-05T09:56:56.559Z,15.37
2023-03-05T09:59:35.939Z,16.20
2023-03-05T10:02:13.565Z,39.63
2023-03-05T10:04:46.224Z,30.23
2023-03-05T10:07:19.591Z,35.33
2023-03-05T10:09:52.383Z,35.60
2023-03-05T10:12:28.845Z,34.83
2023-03-05T10:14:57.315Z,39.30
2023-03-05T10:17:50.548Z,36.50
2023-03-05T10:20:35.480Z,37.53
2023-03-05T10:23:16.300Z,36.70
2023-03-05T10:25:57.987Z,34.50
2023-03-05T10:28:35.869Z,32.07
2023-03-05T10:31:17.833Z,32.47
2023-03-05T10:33:55.155Z,32.20
2023-03-05T10:36:45.014Z,32.40
2023-03-05T10:39:49.668Z,29.60
2023-03-05T10:42:26.317Z,26.63
2023-03-05T10:44:58.662Z,29.70
2023-03-05T10:47:29.778Z,29.53
2023-03-05T10:49:59.773Z,32.83
2023-03-05T10:52:34.385Z,32.67
2023-03-05T10:55:02.411Z,16.20
2023-03-05T10:57:33.470Z,15.97
2023-03-05T11:00:17.648Z,15.43
2023-03-05T11:03:00.606Z,16.10
2023-03-05T11:05:44.039Z,15.73
2023-03-05T11:08:30.791Z,15.30
2023-03-05T11:11:17.177Z,16.10
2023-03-05T11:14:00.482Z,14.90
2023-03-05T11:16:32.954Z,15.40
2023-03-05T11:19:20.091Z,15.40
2023-03-05T11:22:05.499Z,14.43
2023-03-05T11:24:33.832Z,14.60
2023-03-05T11:27:01.903Z,14.90
2023-03-05T11:29:33.467Z,14.53
2023-03-05T11:32:17.993Z,14.20
2023-03-05T11:34:46.083Z,14.60
2023-03-05T11:37:24.430Z,14.10
2023-03-05T11:40:19.081Z,14.17
2023-03-05T11:42:57.209Z,14.07
2023-03-05T11:45:26.976Z,13.90
2023-03-05T11:47:59.637Z,14.13
2023-03-05T11:50:29.202Z,14.70
2023-03-05T11:52:59.745Z,14.50
2023-03-05T11:55:31.088Z,14.70
2023-03-05T11:58:15.968Z,14.40
2023-03-05T12:00:46.694Z,14.90
2023-03-05T12:03:19.735Z,14.40
2023-03-05T12:05:51.494Z,14.47
2023-03-05T12:08:25.565Z,15.60
2023-03-05T12:10:54.243Z,14.90
2023-03-05T12:13:28.433Z,14.77
2023-03-05T12:16:07.059Z,15.40
2023-03-05T12:18:45.599Z,15.07
2023-03-05T12:21:22.847Z,15.50
2023-03-05T12:23:52.608Z,13.47
2023-03-05T12:26:57.910Z,13.83
2023-03-05T12:29:30.604Z,14.97
2023-03-05T12:31:59.354Z,14.10
2023-03-05T12:34:57.016Z,13.70
2023-03-05T12:38:06.176Z,15.63
2023-03-05T12:40:39.269Z,15.03
2023-03-05T12:43:27.710Z,15.20
2023-03-05T12:46:26.621Z,15.53
2023-03-05T12:48:54.705Z,14.00
2023-03-05T12:51:33.793Z,14.10
2023-03-05T12:54:30.981Z,14.90
2023-03-05T12:57:00.673Z,14.10
2023-03-05T12:59:43.065Z,14.60
2023-03-05T13:02:24.315Z,15.63
2023-03-05T13:04:54.294Z,15.60
2023-03-05T13:07:23.604Z,15.07
2023-03-05T13:09:55.737Z,14.23
2023-03-05T13:12:25.514Z,15.50
2023-03-05T13:15:00.329Z,14.53
2023-03-05T13:17:38.195Z,14.03
2023-03-05T13:20:26.011Z,14.33
2023-03-05T13:23:16.661Z,15.07
2023-03-05T13:25:45.657Z,13.80
2023-03-05T13:28:16.094Z,14.63
2023-03-05T13:30:51.464Z,14.10
2023-03-05T13:33:25.813Z,14.60
2023-03-05T13:35:54.268Z,14.80
2023-03-05T13:38:29.539Z,14.47
2023-03-05T13:41:19.613Z,14.90
2023-03-05T13:43:50.126Z,15.20
2023-03-05T13:46:25.623Z,15.20
2023-03-05T13:48:53.678Z,14.97
2023-03-05T13:51:21.812Z,14.73
2023-03-05T13:53:59.603Z,16.17
2023-03-05T13:56:27.578Z,15.70
2023-03-05T13:58:58.188Z,15.03
2023-03-05T14:01:30.024Z,15.07
2023-03-05T14:04:00.778Z,15.30
2023-03-05T14:06:31.001Z,15.50
2023-03-05T14:09:07.593Z,15.20
2023-03-05T14:11:36.640Z,14.80
2023-03-05T14:14:10.782Z,14.50
2023-03-05T14:16:38.855Z,15.20
2023-03-05T14:19:09.119Z,14.88
2023-03-05T14:21:48.341Z,14.73
2023-03-05T14:24:23.547Z,15.20
2023-03-05T14:26:53.427Z,15.40
2023-03-05T14:29:24.466Z,14.90
2023-03-05T14:31:55.540Z,15.00
2023-03-05T14:34:27.743Z,16.63
2023-03-05T14:37:00.259Z,15.98
2023-03-05T14:39:40.316Z,14.77
2023-03-05T14:42:25.750Z,14.63
2023-03-05T14:44:53.932Z,14.30
2023-03-05T14:47:21.939Z,14.73
2023-03-05T14:49:49.939Z,14.55
2023-03-05T14:52:19.325Z,15.02
2023-03-05T14:54:49.376Z,15.73
2023-03-05T14:57:19.719Z,27.98
2023-03-05T14:59:47.756Z,15.20
2023-03-05T15:02:17.683Z,16.13
2023-03-05T15:04:46.617Z,15.80
2023-03-05T15:07:27.786Z,15.20
2023-03-05T15:09:57.250Z,16.33
2023-03-05T15:12:25.609Z,15.40
2023-03-05T15:14:55.302Z,14.98
2023-03-05T15:17:26.955Z,14.95
2023-03-05T15:19:54.998Z,15.05
2023-03-05T15:22:22.979Z,14.02
2023-03-05T15:24:51.029Z,15.65
2023-03-05T15:27:20.378Z,15.63
2023-03-05T15:29:48.351Z,16.20
2023-03-05T15:32:16.377Z,16.25
2023-03-05T15:34:44.578Z,15.88
2023-03-05T15:37:12.767Z,15.60
2023-03-05T15:39:40.840Z,15.43
2023-03-05T15:42:09.008Z,15.20
2023-03-05T15:44:40.053Z,15.77
2023-03-05T15:47:08.095Z,16.88
2023-03-05T15:49:36.099Z,15.82
2023-03-05T15:52:04.306Z,15.77
2023-03-05T15:54:32.297Z,15.60
2023-03-05T15:57:00.288Z,16.30
2023-03-05T15:59:28.594Z,16.30
2023-03-05T16:01:57.989Z,16.17
2023-03-05T16:04:25.991Z,16.38
2023-03-05T16:06:53.993Z,16.67
2023-03-05T16:09:23.140Z,17.65
2023-03-05T16:11:51.616Z,16.15
2023-03-05T16:14:25.617Z,16.10
2023-03-05T16:16:55.254Z,16.10
2023-03-05T16:19:26.520Z,15.85
2023-03-05T16:21:54.490Z,15.30
2023-03-05T16:24:22.669Z,16.83
2023-03-05T16:26:50.635Z,16.77
2023-03-05T16:29:18.862Z,15.75
2023-03-05T16:31:47.709Z,16.17
2023-03-05T16:34:16.309Z,15.63
2023-03-05T16:36:52.565Z,15.00
2023-03-05T16:39:21.517Z,15.70
2023-03-05T16:41:50.701Z,15.32
2023-03-05T16:44:18.859Z,15.80
2023-03-05T16:46:49.318Z,15.97
2023-03-05T16:49:17.581Z,15.30
2023-03-05T16:51:45.552Z,16.40
2023-03-05T16:54:15.014Z,16.03
2023-03-05T16:56:43.018Z,15.30
2023-03-05T16:59:11.701Z,15.33
2023-03-05T17:01:39.905Z,15.50
2023-03-05T17:04:08.016Z,16.27
2023-03-05T17:06:35.982Z,15.87
2023-03-05T17:09:04.710Z,17.03
2023-03-05T17:11:34.023Z,16.77
2023-03-05T17:14:03.923Z,16.33
2023-03-05T17:16:32.176Z,16.70
2023-03-05T17:19:00.365Z,16.87
2023-03-05T17:21:28.354Z,16.53
2023-03-05T17:23:56.774Z,15.83
2023-03-05T17:26:24.808Z,16.13
2023-03-05T17:28:54.592Z,16.27
2023-03-05T17:31:22.693Z,16.00
2023-03-05T17:33:50.914Z,17.13
2023-03-05T17:36:21.010Z,16.10
2023-03-05T17:38:49.936Z,16.60
2023-03-05T17:41:19.651Z,17.47
2023-03-05T17:43:48.044Z,15.50
2023-03-05T17:46:17.629Z,15.60
2023-03-05T17:48:46.148Z,16.00
2023-03-05T17:51:16.765Z,16.30
2023-03-05T17:53:45.607Z,17.07
2023-03-05T17:56:16.906Z,16.43
2023-03-05T17:58:44.936Z,16.10
2023-03-05T18:01:12.939Z,16.10
2023-03-05T18:03:42.348Z,17.33
2023-03-05T18:06:10.307Z,16.93
2023-03-05T18:08:38.377Z,16.90
2023-03-05T18:11:06.724Z,16.30
2023-03-05T18:13:34.739Z,16.27
2023-03-05T18:16:02.775Z,17.77
2023-03-05T18:18:30.959Z,16.40
2023-03-05T18:21:00.271Z,18.00
2023-03-05T18:23:28.422Z,16.37
2023-03-05T18:25:56.434Z,16.87
2023-03-05T18:28:25.852Z,17.90
2023-03-05T18:30:53.890Z,15.93
2023-03-05T18:33:24.305Z,17.50
2023-03-05T18:35:53.441Z,17.23
2023-03-05T18:38:24.464Z,17.27
2023-03-05T18:40:53.272Z,16.80
2023-03-05T18:43:22.729Z,18.30
2023-03-05T18:45:52.022Z,16.83
2023-03-05T18:48:20.292Z,16.20
2023-03-05T18:50:51.322Z,17.37
2023-03-05T18:53:19.317Z,17.03
2023-03-05T18:55:50.371Z,16.63
2023-03-05T18:58:19.788Z,17.60
2023-03-05T19:00:49.011Z,16.00
2023-03-05T19:03:18.782Z,15.47
2023-03-05T19:05:47.863Z,16.17
2023-03-05T19:08:15.936Z,15.87
2023-03-05T19:10:44.094Z,15.57
2023-03-05T19:13:40.876Z,15.83
2023-03-05T19:16:10.720Z,16.67
2023-03-05T19:18:43.994Z,16.40
2023-03-05T19:21:12.156Z,16.70
2023-03-05T19:23:40.148Z,15.80
2023-03-05T19:26:08.340Z,16.63
2023-03-05T19:28:37.677Z,16.97
2023-03-05T19:31:05.907Z,16.07
2023-03-05T19:33:33.961Z,15.80
2023-03-05T19:36:02.137Z,16.83
2023-03-05T19:38:30.138Z,16.70
2023-03-05T19:40:58.197Z,16.33
2023-03-05T19:43:26.277Z,17.00
2023-03-05T19:46:01.665Z,17.20
2023-03-05T19:48:29.892Z,17.07
2023-03-05T19:50:58.236Z,17.93
2023-03-05T19:53:26.891Z,18.07
2023-03-05T19:55:55.292Z,16.63
2023-03-05T19:58:23.973Z,22.90
2023-03-05T20:00:52.577Z,18.07
2023-03-05T20:03:22.774Z,16.73
2023-03-05T20:05:51.544Z,17.20
2023-03-05T20:08:20.543Z,19.17
2023-03-05T20:10:49.358Z,16.37
2023-03-05T20:13:18.217Z,16.00
2023-03-05T20:15:46.925Z,17.57
2023-03-05T20:18:15.749Z,24.03
2023-03-05T20:20:48.328Z,17.97
2023-03-05T20:23:17.044Z,16.50
2023-03-05T20:25:45.696Z,25.40
2023-03-05T20:28:14.725Z,19.00
2023-03-05T20:30:45.146Z,18.13
2023-03-05T20:33:13.926Z,16.17
2023-03-05T20:35:42.669Z,16.23
2023-03-05T20:38:22.896Z,16.47
2023-03-05T20:40:53.312Z,16.30
2023-03-05T20:43:23.770Z,18.10
2023-03-05T20:45:53.291Z,17.23
2023-03-05T20:48:22.353Z,16.50
2023-03-05T20:50:51.387Z,17.77
2023-03-05T20:53:21.786Z,16.67
2023-03-05T20:55:50.615Z,16.17
2023-03-05T20:58:19.363Z,17.90
2023-03-05T21:00:50.548Z,17.70
2023-03-05T21:03:19.049Z,16.60
2023-03-05T21:05:47.836Z,15.47
2023-03-05T21:08:16.339Z,14.70
2023-03-05T21:10:46.305Z,16.00
2023-03-05T21:13:14.691Z,17.97
2023-03-05T21:15:43.092Z,17.50
2023-03-05T21:18:11.543Z,15.07
2023-03-05T21:20:41.225Z,15.90
2023-03-05T21:23:09.628Z,17.60
2023-03-05T21:25:37.729Z,16.07
2023-03-05T21:28:09.464Z,16.70
2023-03-05T21:30:39.723Z,15.87
2023-03-05T21:33:09.983Z,16.03
2023-03-05T21:35:38.530Z,15.03
2023-03-05T21:38:08.148Z,17.50
2023-03-05T21:40:37.728Z,15.40
2023-03-05T21:43:07.181Z,16.67
2023-03-05T21:45:35.255Z,16.20
2023-03-05T21:48:03.256Z,18.93
2023-03-05T21:50:33.441Z,15.47
2023-03-05T21:53:01.762Z,16.43
2023-03-05T21:55:46.498Z,15.30
2023-03-05T21:58:16.054Z,17.23
2023-03-05T22:00:44.086Z,17.47
2023-03-05T22:03:12.292Z,18.47
2023-03-05T22:05:42.770Z,16.07
2023-03-05T22:08:10.796Z,15.63
2023-03-05T22:10:40.666Z,17.13
2023-03-05T22:13:13.353Z,15.40
2023-03-05T22:15:48.257Z,16.67
2023-03-05T22:18:17.879Z,15.27
2023-03-05T22:20:46.130Z,17.33
2023-03-05T22:23:14.191Z,16.07
2023-03-05T22:25:43.277Z,16.57
2023-03-05T22:28:12.231Z,16.60
2023-03-05T22:30:44.105Z,19.03
2023-03-05T22:33:13.830Z,17.67
2023-03-05T22:35:42.571Z,16.33
2023-03-05T22:38:11.227Z,16.03
2023-03-05T22:40:43.470Z,16.63
2023-03-05T22:43:11.766Z,15.80
2023-03-05T22:45:40.363Z,15.23
2023-03-05T22:48:09.840Z,16.77
2023-03-05T22:50:39.324Z,16.63
2023-03-05T22:53:07.913Z,16.90
2023-03-05T22:55:38.573Z,16.40
2023-03-05T22:58:06.523Z,16.27
2023-03-05T23:00:34.694Z,15.60
2023-03-05T23:03:02.843Z,15.90
2023-03-05T23:05:31.055Z,15.33
2023-03-05T23:08:00.393Z,16.80
2023-03-05T23:10:29.641Z,16.97
2023-03-05T23:13:00.209Z,14.70
2023-03-05T23:15:30.438Z,17.97
2023-03-05T23:17:58.556Z,17.87
2023-03-05T23:20:28.817Z,16.03
2023-03-05T23:22:57.670Z,17.33
2023-03-05T23:25:29.119Z,19.13
2023-03-05T23:27:58.004Z,15.60
2023-03-05T23:30:26.919Z,16.33
2023-03-05T23:32:57.245Z,15.87
2023-03-05T23:35:27.123Z,16.10
2023-03-05T23:37:56.087Z,15.40
2023-03-05T23:40:26.914Z,16.67
2023-03-05T23:42:55.487Z,17.37
2023-03-05T23:45:24.652Z,16.27
2023-03-05T23:47:53.124Z,16.47
2023-03-05T23:50:22.937Z,18.00
2023-03-05T23:52:51.777Z,16.83
2023-03-05T23:55:24.026Z,15.27
2023-03-05T23:57:53.693Z,15.07
